Time;durP1;ratioP1;P1;durP2;ratioP2;P2;SDS_P1;SDS_P2;PMS_P1;PMS_P2;Temp;Humidity;BMP_temperature;BMP_pressure;BME280_temperature;BME280_humidity;BME280_pressure;Samples;Min_cycle;Max_cycle;Signal;HPM_P1;HPM_P2
2021/11/13 00:00:27;;;;;;;56.30;30.07;;;5.10;99.90;;;;;;5116391;28;20538;-69
2021/11/13 00:02:54;;;;;;;54.60;30.20;;;5.10;99.90;;;;;;5116480;28;20477;-69
2021/11/13 00:05:20;;;;;;;55.20;29.83;;;5.00;99.90;;;;;;5116106;28;20460;-69
2021/11/13 00:07:47;;;;;;;52.53;29.13;;;5.10;99.90;;;;;;5116443;28;20463;-69
2021/11/13 00:10:19;;;;;;;65.83;36.70;;;5.10;99.90;;;;;;5117205;28;20551;-68
2021/11/13 00:12:46;;;;;;;56.70;30.67;;;5.10;99.90;;;;;;5117044;28;20889;-69
2021/11/13 00:15:18;;;;;;;56.90;31.33;;;5.10;99.90;;;;;;5116168;28;20797;-69
2021/11/13 00:17:45;;;;;;;61.50;31.50;;;5.00;99.90;;;;;;5116153;28;20501;-68
2021/11/13 00:20:13;;;;;;;60.60;30.30;;;5.00;99.90;;;;;;5115707;28;20456;-68
2021/11/13 00:22:40;;;;;;;56.97;31.07;;;5.00;99.90;;;;;;5115183;28;20830;-68
2021/11/13 00:25:08;;;;;;;63.47;33.80;;;5.00;99.90;;;;;;5115431;28;20920;-69
2021/11/13 00:27:36;;;;;;;56.43;29.97;;;5.10;99.90;;;;;;5115597;28;20465;-69
2021/11/13 00:30:05;;;;;;;54.83;30.90;;;5.10;99.90;;;;;;5113152;28;20526;-69
2021/11/13 00:32:32;;;;;;;53.33;30.30;;;5.00;99.90;;;;;;5115694;28;20455;-69
2021/11/13 00:34:59;;;;;;;53.93;32.73;;;5.00;99.90;;;;;;5115240;28;20913;-69
2021/11/13 00:37:26;;;;;;;56.37;29.77;;;5.00;99.90;;;;;;5114980;28;20468;-67
2021/11/13 00:39:53;;;;;;;58.63;31.30;;;5.10;99.90;;;;;;5115496;28;20784;-69
2021/11/13 00:42:20;;;;;;;54.47;30.00;;;5.00;99.90;;;;;;5115483;28;20790;-69
2021/11/13 00:44:49;;;;;;;54.17;30.43;;;5.10;99.90;;;;;;5115581;28;20456;-68
2021/11/13 00:47:15;;;;;;;51.90;28.67;;;5.00;99.90;;;;;;5115178;28;20457;-69
2021/11/13 00:49:44;;;;;;;52.53;27.30;;;5.00;99.90;;;;;;5115410;28;20455;-69
2021/11/13 00:52:11;;;;;;;57.43;29.80;;;5.00;99.90;;;;;;5115149;28;20874;-69
2021/11/13 00:54:38;;;;;;;55.03;30.33;;;5.00;99.90;;;;;;5114740;28;20487;-69
2021/11/13 00:57:08;;;;;;;53.07;30.00;;;5.00;99.90;;;;;;5115363;28;20457;-69
2021/11/13 00:59:35;;;;;;;55.97;28.60;;;5.10;99.90;;;;;;5115244;28;20993;-69
2021/11/13 01:02:04;;;;;;;57.20;28.37;;;4.90;99.90;;;;;;5114917;28;20512;-68
2021/11/13 01:04:30;;;;;;;54.20;28.67;;;4.80;99.90;;;;;;5115292;28;20460;-69
2021/11/13 01:06:57;;;;;;;50.53;28.00;;;4.90;99.90;;;;;;5115362;28;20518;-68
2021/11/13 01:09:24;;;;;;;54.37;29.10;;;4.80;99.90;;;;;;5114527;28;20966;-69
2021/11/13 01:11:51;;;;;;;59.33;29.90;;;4.80;99.90;;;;;;5115068;28;20512;-68
2021/11/13 01:14:18;;;;;;;50.37;28.20;;;4.80;99.90;;;;;;5114985;28;20464;-68
2021/11/13 01:16:44;;;;;;;53.83;29.77;;;4.70;99.90;;;;;;5115080;28;20456;-68
2021/11/13 01:19:13;;;;;;;60.97;29.70;;;4.80;99.90;;;;;;5114788;28;20463;-68
2021/11/13 01:21:40;;;;;;;48.70;27.77;;;4.70;99.90;;;;;;5114701;28;20571;-68
2021/11/13 01:24:07;;;;;;;56.97;29.10;;;4.80;99.90;;;;;;5114461;28;20486;-69
2021/11/13 01:26:37;;;;;;;62.33;31.93;;;4.70;99.90;;;;;;5114802;28;20456;-67
2021/11/13 01:29:04;;;;;;;53.47;29.50;;;4.70;99.90;;;;;;5114971;28;20447;-68
2021/11/13 01:31:31;;;;;;;51.63;28.90;;;4.70;99.90;;;;;;5114883;28;20457;-68
2021/11/13 01:33:58;;;;;;;51.90;28.13;;;4.70;99.90;;;;;;5115062;28;20451;-68
2021/11/13 01:36:26;;;;;;;59.53;29.37;;;4.80;99.90;;;;;;5114571;28;20547;-67
2021/11/13 01:38:54;;;;;;;51.00;28.47;;;4.90;99.90;;;;;;5114843;28;20453;-68
2021/11/13 01:41:22;;;;;;;55.40;27.63;;;5.00;99.90;;;;;;5114838;28;20535;-68
2021/11/13 01:43:50;;;;;;;50.80;27.97;;;5.00;99.90;;;;;;5117564;28;20972;-68
2021/11/13 01:46:18;;;;;;;48.77;27.23;;;5.10;99.90;;;;;;5119000;28;20569;-68
2021/11/13 01:48:44;;;;;;;50.07;27.73;;;5.10;99.90;;;;;;5118868;28;20511;-68
2021/11/13 01:51:17;;;;;;;52.63;28.10;;;5.20;99.90;;;;;;5118882;28;20737;-68
2021/11/13 01:53:46;;;;;;;54.87;28.43;;;5.20;99.90;;;;;;5119028;28;20460;-68
2021/11/13 01:56:17;;;;;;;60.27;28.23;;;5.20;99.90;;;;;;5118568;28;20469;-68
2021/11/13 01:58:44;;;;;;;54.77;28.60;;;5.20;99.90;;;;;;5118857;28;20460;-68
2021/11/13 02:01:11;;;;;;;51.90;28.43;;;5.10;99.90;;;;;;5118026;28;20779;-68
2021/11/13 02:03:39;;;;;;;49.57;27.27;;;5.10;99.90;;;;;;5118776;28;20484;-68
2021/11/13 02:06:08;;;;;;;51.17;27.17;;;5.20;99.90;;;;;;5118410;28;20456;-68
2021/11/13 02:08:35;;;;;;;54.03;29.50;;;5.20;99.90;;;;;;5118562;28;20456;-68
2021/11/13 02:11:03;;;;;;;54.33;27.27;;;5.20;99.90;;;;;;5118473;28;20476;-68
2021/11/13 02:13:30;;;;;;;52.60;29.47;;;5.10;99.90;;;;;;5118896;28;20465;-68
2021/11/13 02:15:57;;;;;;;52.37;27.20;;;5.20;99.90;;;;;;5118059;28;20460;-68
2021/11/13 02:18:23;;;;;;;58.63;28.13;;;5.10;99.90;;;;;;5118181;28;20472;-68
2021/11/13 02:20:52;;;;;;;52.03;27.83;;;5.00;99.90;;;;;;5118108;28;20788;-68
2021/11/13 02:23:24;;;;;;;56.50;27.10;;;5.00;99.90;;;;;;5118274;28;20475;-68
2021/11/13 02:25:52;;;;;;;54.03;28.30;;;4.90;99.90;;;;;;5118174;28;20494;-68
2021/11/13 02:28:27;;;;;;;56.80;29.23;;;4.90;99.90;;;;;;5118290;28;20453;-68
2021/11/13 02:30:56;;;;;;;51.90;28.97;;;5.00;99.90;;;;;;5118058;28;20439;-68
2021/11/13 02:33:24;;;;;;;50.83;26.50;;;5.00;99.90;;;;;;5118305;28;20462;-69
2021/11/13 02:35:54;;;;;;;52.13;28.00;;;4.90;99.90;;;;;;5117600;28;20456;-69
2021/11/13 02:38:23;;;;;;;51.67;28.00;;;5.00;99.90;;;;;;5118252;28;20485;-68
2021/11/13 02:40:54;;;;;;;52.20;27.20;;;5.10;99.90;;;;;;5118462;28;20461;-68
2021/11/13 02:43:22;;;;;;;52.60;27.00;;;5.10;99.90;;;;;;5117720;28;20461;-69
2021/11/13 02:45:48;;;;;;;51.50;26.23;;;5.10;99.90;;;;;;5117396;28;20476;-69
2021/11/13 02:48:15;;;;;;;54.43;30.83;;;5.10;99.90;;;;;;5117674;28;20459;-69
2021/11/13 02:50:43;;;;;;;50.23;27.20;;;5.10;99.90;;;;;;5117650;28;20471;-69
2021/11/13 02:53:14;;;;;;;54.10;26.93;;;5.10;99.90;;;;;;5117350;28;20900;-69
2021/11/13 02:55:44;;;;;;;47.33;28.13;;;5.10;99.90;;;;;;5117618;28;20440;-69
2021/11/13 02:58:11;;;;;;;48.40;26.40;;;5.00;99.90;;;;;;5117795;28;20471;-69
2021/11/13 03:00:41;;;;;;;50.43;28.27;;;5.10;99.90;;;;;;5117336;28;20450;-69
2021/11/13 03:03:08;;;;;;;49.47;26.30;;;5.00;99.90;;;;;;5117598;28;20546;-69
2021/11/13 03:05:37;;;;;;;47.10;27.03;;;5.00;99.90;;;;;;5117336;28;20532;-72
2021/11/13 03:08:07;;;;;;;51.20;28.53;;;5.10;99.90;;;;;;5117678;28;20928;-67
2021/11/13 03:10:37;;;;;;;51.10;27.67;;;5.10;99.90;;;;;;5117353;28;20795;-67
2021/11/13 03:13:04;;;;;;;51.73;26.30;;;5.00;99.90;;;;;;5117365;28;20452;-69
2021/11/13 03:15:31;;;;;;;55.43;30.33;;;5.00;99.90;;;;;;5117050;28;20467;-68
2021/11/13 03:17:59;;;;;;;52.90;27.93;;;4.90;99.90;;;;;;5117067;28;20467;-68
2021/11/13 03:20:28;;;;;;;49.70;29.00;;;4.80;99.90;;;;;;5117115;28;20466;-68
2021/11/13 03:22:55;;;;;;;53.07;28.27;;;4.80;99.90;;;;;;5116991;28;20800;-68
2021/11/13 03:25:27;;;;;;;47.33;27.57;;;4.80;99.90;;;;;;5117069;28;20453;-68
2021/11/13 03:27:59;;;;;;;46.27;26.80;;;4.90;99.90;;;;;;5116880;28;20440;-68
2021/11/13 03:30:26;;;;;;;48.40;26.10;;;5.00;99.90;;;;;;5117111;28;20909;-69
2021/11/13 03:32:56;;;;;;;53.20;28.70;;;4.90;99.90;;;;;;5116790;28;20459;-68
2021/11/13 03:35:28;;;;;;;46.20;26.70;;;4.90;99.90;;;;;;5116937;28;20515;-68
2021/11/13 03:37:56;;;;;;;51.70;27.77;;;4.90;99.90;;;;;;5116801;28;20441;-68
2021/11/13 03:40:22;;;;;;;48.50;25.80;;;5.00;99.90;;;;;;5116863;28;20769;-69
2021/11/13 03:42:49;;;;;;;52.23;26.90;;;5.00;99.90;;;;;;5116688;28;20459;-68
2021/11/13 03:45:18;;;;;;;43.13;24.53;;;5.00;99.90;;;;;;5116167;28;20456;-69
2021/11/13 03:47:44;;;;;;;55.43;26.87;;;5.00;99.90;;;;;;5116682;28;20472;-69
2021/11/13 03:50:11;;;;;;;43.20;26.47;;;4.90;99.90;;;;;;5116606;28;20513;-69
2021/11/13 03:52:38;;;;;;;46.87;27.30;;;4.90;99.90;;;;;;5116097;28;20453;-69
2021/11/13 03:55:06;;;;;;;45.83;25.53;;;4.90;99.90;;;;;;5116772;28;20457;-68
2021/11/13 03:57:32;;;;;;;50.93;28.87;;;4.90;99.90;;;;;;5116716;28;20947;-68
2021/11/13 03:59:59;;;;;;;49.90;27.87;;;5.00;99.90;;;;;;5116403;28;20453;-68
2021/11/13 04:02:27;;;;;;;47.50;25.93;;;5.00;99.90;;;;;;5116038;28;20791;-69
2021/11/13 04:04:54;;;;;;;46.53;25.40;;;5.00;99.90;;;;;;5115741;28;20944;-68
2021/11/13 04:07:21;;;;;;;49.37;25.27;;;5.00;99.90;;;;;;5115886;28;20921;-68
2021/11/13 04:09:48;;;;;;;47.80;26.97;;;5.00;99.90;;;;;;5115967;28;20453;-69
2021/11/13 04:12:15;;;;;;;43.10;24.50;;;5.00;99.90;;;;;;5116047;28;20818;-69
2021/11/13 04:14:42;;;;;;;45.80;25.33;;;5.00;99.90;;;;;;5115785;28;20456;-69
2021/11/13 04:17:10;;;;;;;49.27;25.90;;;5.00;99.90;;;;;;5115849;28;20917;-69
2021/11/13 04:19:38;;;;;;;52.90;25.13;;;5.00;99.90;;;;;;5115743;28;20485;-69
2021/11/13 04:22:05;;;;;;;44.70;26.90;;;5.00;99.90;;;;;;5115476;28;20481;-69
2021/11/13 04:24:34;;;;;;;47.50;24.13;;;5.00;99.90;;;;;;5115911;28;20484;-69
2021/11/13 04:27:01;;;;;;;41.57;24.43;;;5.00;99.90;;;;;;5116067;28;20536;-69
2021/11/13 04:29:28;;;;;;;42.00;24.17;;;5.00;99.90;;;;;;5115667;28;20809;-69
2021/11/13 04:31:57;;;;;;;44.33;25.23;;;5.00;99.90;;;;;;5115818;28;20500;-69
2021/11/13 04:34:25;;;;;;;44.03;25.30;;;5.00;99.90;;;;;;5115090;28;20924;-69
2021/11/13 04:36:55;;;;;;;44.57;26.30;;;5.10;99.90;;;;;;5115374;28;20454;-69
2021/11/13 04:39:24;;;;;;;46.70;24.70;;;5.10;99.90;;;;;;5115655;28;20456;-69
2021/11/13 04:41:53;;;;;;;43.83;25.07;;;5.00;99.90;;;;;;5115416;28;20466;-69
2021/11/13 04:44:20;;;;;;;51.37;24.50;;;4.90;99.90;;;;;;5115503;28;20567;-69
2021/11/13 04:46:47;;;;;;;45.77;25.07;;;4.90;99.90;;;;;;5115379;28;20464;-69
2021/11/13 04:49:14;;;;;;;44.50;25.00;;;5.00;99.90;;;;;;5115379;28;20449;-69
2021/11/13 04:51:41;;;;;;;43.37;24.53;;;5.00;99.90;;;;;;5114977;28;20835;-68
2021/11/13 04:54:09;;;;;;;46.70;24.73;;;5.00;99.90;;;;;;5115075;28;20466;-68
2021/11/13 04:56:37;;;;;;;48.33;24.83;;;4.90;99.90;;;;;;5115401;28;20460;-68
2021/11/13 04:59:04;;;;;;;42.10;23.83;;;4.80;99.90;;;;;;5115722;28;20522;-68
2021/11/13 05:01:31;;;;;;;45.70;24.80;;;4.80;99.90;;;;;;5115627;28;20461;-69
2021/11/13 05:03:57;;;;;;;49.10;25.40;;;4.70;99.90;;;;;;5115597;28;20484;-68
2021/11/13 05:06:25;;;;;;;43.17;24.00;;;4.70;99.90;;;;;;5115445;28;20459;-69
2021/11/13 05:08:54;;;;;;;46.10;25.63;;;4.80;99.90;;;;;;5115860;28;20457;-69
2021/11/13 05:11:22;;;;;;;49.27;24.97;;;4.80;99.90;;;;;;5115145;28;20546;-68
2021/11/13 05:13:48;;;;;;;48.77;26.13;;;4.80;99.90;;;;;;5115122;28;20456;-69
2021/11/13 05:16:15;;;;;;;47.63;24.30;;;4.90;99.90;;;;;;5115285;27;20459;-68
2021/11/13 05:18:42;;;;;;;49.20;24.37;;;5.00;99.90;;;;;;5115249;28;20468;-68
2021/11/13 05:21:11;;;;;;;44.93;24.70;;;5.00;99.90;;;;;;5115027;28;20485;-68
2021/11/13 05:23:39;;;;;;;44.33;25.30;;;5.00;99.90;;;;;;5114930;28;20493;-68
2021/11/13 05:26:06;;;;;;;45.83;22.30;;;5.00;99.90;;;;;;5114785;28;20456;-68
2021/11/13 05:28:37;;;;;;;40.27;21.50;;;4.90;99.90;;;;;;5114805;28;20457;-68
2021/11/13 05:31:04;;;;;;;43.40;23.57;;;4.90;99.90;;;;;;5114895;28;20448;-69
2021/11/13 05:33:34;;;;;;;45.33;23.53;;;4.90;99.90;;;;;;5115821;28;20486;-68
2021/11/13 05:36:01;;;;;;;46.93;23.63;;;4.90;99.90;;;;;;5115023;28;20467;-68
2021/11/13 05:38:28;;;;;;;39.53;23.17;;;5.00;99.90;;;;;;5114831;28;20465;-68
2021/11/13 05:40:54;;;;;;;39.63;22.17;;;5.00;99.90;;;;;;5115118;28;20450;-68
2021/11/13 05:43:21;;;;;;;42.13;23.50;;;5.10;99.90;;;;;;5114995;28;20453;-68
2021/11/13 05:45:51;;;;;;;38.67;22.07;;;5.10;99.90;;;;;;5115239;28;20464;-68
2021/11/13 05:48:18;;;;;;;40.60;24.50;;;5.10;99.90;;;;;;5115077;28;20441;-68
2021/11/13 05:50:46;;;;;;;38.77;21.03;;;5.10;99.90;;;;;;5114654;28;20456;-68
2021/11/13 05:53:13;;;;;;;36.43;22.17;;;5.10;99.90;;;;;;5114899;28;20453;-69
2021/11/13 05:55:41;;;;;;;40.73;23.33;;;5.20;99.90;;;;;;5114379;28;20917;-69
2021/11/13 05:58:08;;;;;;;39.50;22.87;;;5.10;99.90;;;;;;5114416;28;20453;-69
2021/11/13 06:01:10;;;;;;;42.43;22.53;;;5.10;99.90;;;;;;5116426;28;20458;-67
2021/11/13 06:03:40;;;;;;;41.27;22.67;;;5.20;99.90;;;;;;5114117;28;20484;-69
2021/11/13 06:06:09;;;;;;;42.17;22.63;;;5.20;99.90;;;;;;5114441;28;20456;-69
2021/11/13 06:08:36;;;;;;;37.80;22.27;;;5.20;99.90;;;;;;5114303;28;20460;-69
2021/11/13 06:11:03;;;;;;;36.30;21.53;;;5.20;99.90;;;;;;5114169;28;20464;-69
2021/11/13 06:13:29;;;;;;;42.87;23.47;;;5.30;99.90;;;;;;5115112;28;20475;-69
2021/11/13 06:15:56;;;;;;;36.73;22.63;;;5.30;99.90;;;;;;5114592;28;20537;-69
2021/11/13 06:18:24;;;;;;;37.00;22.10;;;5.30;99.90;;;;;;5114493;28;20461;-69
2021/11/13 06:20:51;;;;;;;40.43;22.93;;;5.30;99.90;;;;;;5114164;28;20485;-69
2021/11/13 06:23:18;;;;;;;35.00;21.90;;;5.30;99.90;;;;;;5114509;28;20457;-70
2021/11/13 06:25:44;;;;;;;42.33;24.10;;;5.40;99.90;;;;;;5114847;28;20530;-68
2021/11/13 06:28:11;;;;;;;36.77;21.07;;;5.40;99.90;;;;;;5114529;28;20461;-68
2021/11/13 06:30:38;;;;;;;38.30;21.57;;;5.30;99.90;;;;;;5118609;28;20783;-68
2021/11/13 06:33:04;;;;;;;47.53;25.20;;;5.30;99.90;;;;;;5118568;28;20779;-69
2021/11/13 06:35:36;;;;;;;39.23;22.33;;;5.20;99.90;;;;;;5118501;28;20920;-69
2021/11/13 06:38:03;;;;;;;42.50;22.43;;;5.30;99.90;;;;;;5117992;28;20472;-68
2021/11/13 06:40:30;;;;;;;42.17;21.67;;;5.20;99.90;;;;;;5118113;28;20521;-68
2021/11/13 06:42:56;;;;;;;38.03;21.13;;;5.20;99.90;;;;;;5117600;28;20460;-69
2021/11/13 06:45:23;;;;;;;39.67;23.03;;;5.20;99.90;;;;;;5117741;28;20491;-69
2021/11/13 06:47:53;;;;;;;37.10;21.50;;;5.10;99.90;;;;;;5117836;28;20456;-69
2021/11/13 06:50:20;;;;;;;36.83;22.63;;;5.10;99.90;;;;;;5117876;28;20452;-69
2021/11/13 06:52:48;;;;;;;42.23;23.40;;;5.10;99.90;;;;;;5117627;28;20915;-69
2021/11/13 06:55:15;;;;;;;38.13;22.13;;;5.10;99.90;;;;;;5117283;28;20860;-69
2021/11/13 06:57:43;;;;;;;37.77;22.17;;;5.10;99.90;;;;;;5117791;28;20467;-69
2021/11/13 07:00:12;;;;;;;42.30;22.10;;;5.20;99.90;;;;;;5117425;28;20530;-69
2021/11/13 07:02:40;;;;;;;40.80;20.70;;;5.20;99.90;;;;;;5117546;28;20457;-69
2021/11/13 07:05:08;;;;;;;39.73;22.63;;;5.20;99.90;;;;;;5117119;28;20476;-69
2021/11/13 07:07:36;;;;;;;37.07;22.37;;;5.20;99.90;;;;;;5117467;28;20835;-68
2021/11/13 07:10:06;;;;;;;37.77;22.70;;;5.10;99.90;;;;;;5117139;28;20784;-68
2021/11/13 07:12:33;;;;;;;36.00;21.70;;;5.20;99.90;;;;;;5116926;28;20467;-68
2021/11/13 07:15:05;;;;;;;37.67;20.07;;;5.10;99.90;;;;;;5117226;28;20459;-68
2021/11/13 07:17:32;;;;;;;34.57;20.80;;;5.00;99.90;;;;;;5117438;28;20524;-69
2021/11/13 07:19:59;;;;;;;39.83;21.47;;;5.10;99.90;;;;;;5117216;28;20464;-69
2021/11/13 07:22:27;;;;;;;38.40;20.57;;;5.10;99.90;;;;;;5116613;28;20483;-69
2021/11/13 07:24:54;;;;;;;37.07;21.27;;;5.10;99.90;;;;;;5116958;28;20492;-68
2021/11/13 07:27:22;;;;;;;36.80;21.80;;;5.10;99.90;;;;;;5117094;28;20521;-69
2021/11/13 07:29:58;;;;;;;36.57;19.87;;;5.20;99.90;;;;;;5116806;28;20466;-68
2021/11/13 07:32:25;;;;;;;34.10;20.30;;;5.20;99.90;;;;;;5117089;28;20772;-68
2021/11/13 07:34:53;;;;;;;35.40;21.87;;;5.20;99.90;;;;;;5116764;28;20926;-68
2021/11/13 07:37:21;;;;;;;35.93;20.70;;;5.20;99.90;;;;;;5116961;28;20916;-68
2021/11/13 07:39:48;;;;;;;34.30;19.50;;;5.30;99.90;;;;;;5116942;28;20757;-68
2021/11/13 07:42:17;;;;;;;35.20;20.77;;;5.40;99.90;;;;;;5116355;28;20468;-68
2021/11/13 07:44:45;;;;;;;33.87;19.97;;;5.50;99.90;;;;;;5116289;28;20484;-68
2021/11/13 07:47:12;;;;;;;33.43;20.00;;;5.50;99.90;;;;;;5116716;28;20456;-68
2021/11/13 07:49:39;;;;;;;31.20;19.17;;;5.40;99.90;;;;;;5116746;28;20468;-69
2021/11/13 07:52:07;;;;;;;35.57;19.53;;;5.40;99.90;;;;;;5115817;28;20978;-68
2021/11/13 07:54:34;;;;;;;33.87;19.23;;;5.50;99.90;;;;;;5116442;28;20513;-68
2021/11/13 07:57:01;;;;;;;36.37;21.00;;;5.60;99.90;;;;;;5116478;28;20452;-68
2021/11/13 07:59:28;;;;;;;35.33;20.33;;;5.70;99.90;;;;;;5116310;28;20511;-68
2021/11/13 08:01:56;;;;;;;30.77;18.53;;;5.80;99.90;;;;;;5116534;28;20467;-68
2021/11/13 08:04:22;;;;;;;29.93;17.83;;;5.90;99.90;;;;;;5116021;28;20504;-69
2021/11/13 08:06:49;;;;;;;31.97;19.13;;;6.00;99.90;;;;;;5116150;28;20456;-68
2021/11/13 08:09:16;;;;;;;27.57;16.87;;;6.10;99.90;;;;;;5116382;28;20468;-69
2021/11/13 08:11:42;;;;;;;29.87;17.87;;;6.10;99.90;;;;;;5116015;28;20457;-69
2021/11/13 08:14:09;;;;;;;30.80;19.80;;;6.00;99.90;;;;;;5114688;28;21009;-69
2021/11/13 08:16:36;;;;;;;30.80;18.20;;;6.00;99.90;;;;;;5115914;28;20843;-68
2021/11/13 08:19:04;;;;;;;34.47;19.77;;;6.00;99.90;;;;;;5116150;28;20483;-69
2021/11/13 08:21:31;;;;;;;33.73;19.90;;;5.90;99.90;;;;;;5115173;28;20496;-68
2021/11/13 08:23:59;;;;;;;32.30;18.87;;;5.90;99.90;;;;;;5115844;28;20460;-69
2021/11/13 08:26:26;;;;;;;31.10;18.70;;;5.80;99.90;;;;;;5115842;28;20537;-70
2021/11/13 08:28:52;;;;;;;38.00;20.30;;;5.80;99.90;;;;;;5115616;28;20552;-69
2021/11/13 08:31:19;;;;;;;29.17;17.43;;;5.70;99.90;;;;;;5116020;28;20461;-69
2021/11/13 08:33:46;;;;;;;26.83;16.73;;;5.80;99.90;;;;;;5115490;28;20470;-68
2021/11/13 08:36:14;;;;;;;30.13;18.10;;;5.90;99.90;;;;;;5116028;28;20476;-68
2021/11/13 08:38:41;;;;;;;28.80;17.93;;;6.00;99.90;;;;;;5115796;28;20452;-69
2021/11/13 08:41:08;;;;;;;32.80;19.07;;;6.00;99.90;;;;;;5115611;28;20496;-68
2021/11/13 08:43:34;;;;;;;28.80;17.43;;;6.00;99.90;;;;;;5115487;28;20454;-70
2021/11/13 08:46:01;;;;;;;35.40;19.77;;;5.90;99.90;;;;;;5115102;28;20477;-68
2021/11/13 08:48:28;;;;;;;28.97;18.20;;;6.00;99.90;;;;;;5115448;28;20468;-69
2021/11/13 08:50:55;;;;;;;34.90;19.97;;;5.90;99.90;;;;;;5114738;28;20463;-69
2021/11/13 08:53:23;;;;;;;36.17;19.83;;;6.00;99.90;;;;;;5115102;28;20465;-68
2021/11/13 08:55:50;;;;;;;30.70;17.60;;;6.00;99.90;;;;;;5115536;28;20452;-68
2021/11/13 08:58:17;;;;;;;27.83;17.80;;;6.00;99.90;;;;;;5115202;28;20483;-69
2021/11/13 09:00:47;;;;;;;27.53;17.37;;;6.10;99.90;;;;;;5115119;28;20456;-69
2021/11/13 09:03:17;;;;;;;28.80;17.77;;;6.00;99.90;;;;;;5115571;28;20449;-69
2021/11/13 09:05:44;;;;;;;27.50;17.20;;;6.10;99.90;;;;;;5115147;28;20470;-69
2021/11/13 09:08:11;;;;;;;25.50;16.70;;;6.20;99.90;;;;;;5115158;28;20766;-69
2021/11/13 09:10:41;;;;;;;24.43;15.90;;;6.20;99.90;;;;;;5114970;28;20453;-69
2021/11/13 09:13:10;;;;;;;24.23;14.90;;;6.30;99.90;;;;;;5115281;28;20459;-69
2021/11/13 09:15:41;;;;;;;27.93;16.50;;;6.40;99.90;;;;;;5115393;28;20460;-69
2021/11/13 09:18:10;;;;;;;25.70;16.87;;;6.40;99.90;;;;;;5115313;28;20462;-69
2021/11/13 09:20:38;;;;;;;26.67;17.27;;;6.40;99.90;;;;;;5115361;28;20508;-69
2021/11/13 09:23:08;;;;;;;28.00;17.70;;;6.40;99.90;;;;;;5115099;28;20472;-68
2021/11/13 09:25:35;;;;;;;31.30;18.10;;;6.30;99.90;;;;;;5114988;28;20485;-68
2021/11/13 09:28:05;;;;;;;29.33;17.50;;;6.30;99.90;;;;;;5115812;28;20458;-68
2021/11/13 09:30:34;;;;;;;26.80;16.27;;;6.20;99.90;;;;;;5115341;28;20536;-68
2021/11/13 09:33:01;;;;;;;28.30;17.27;;;6.20;99.90;;;;;;5114859;28;20457;-69
2021/11/13 09:35:30;;;;;;;27.73;16.90;;;6.30;99.90;;;;;;5114643;28;20928;-67
2021/11/13 09:37:58;;;;;;;25.77;17.27;;;6.20;99.90;;;;;;5115245;28;20468;-69
2021/11/13 09:40:28;;;;;;;28.60;18.17;;;6.10;99.90;;;;;;5114863;28;20803;-69
2021/11/13 09:42:58;;;;;;;29.30;19.27;;;6.20;99.90;;;;;;5114563;28;20494;-68
2021/11/13 09:45:27;;;;;;;25.13;16.50;;;6.20;99.90;;;;;;5114799;28;20465;-68
2021/11/13 09:47:59;;;;;;;29.47;17.10;;;6.40;99.90;;;;;;5114569;28;20464;-68
2021/11/13 09:50:28;;;;;;;26.50;16.97;;;6.50;99.90;;;;;;5115296;28;20832;-69
2021/11/13 09:52:55;;;;;;;29.30;17.70;;;6.50;99.90;;;;;;5113768;28;20862;-68
2021/11/13 09:55:23;;;;;;;31.43;16.90;;;6.60;99.90;;;;;;5114469;28;20457;-69
2021/11/13 09:57:51;;;;;;;27.27;16.37;;;6.60;99.90;;;;;;5114666;28;20457;-69
2021/11/13 10:00:20;;;;;;;26.20;16.27;;;6.60;99.90;;;;;;5114747;28;20481;-68
2021/11/13 10:02:49;;;;;;;28.33;18.20;;;6.70;99.90;;;;;;5114313;28;20464;-68
2021/11/13 10:05:16;;;;;;;31.70;18.47;;;6.70;99.90;;;;;;5118050;28;20499;-69
2021/11/13 10:07:46;;;;;;;26.13;16.40;;;6.80;99.90;;;;;;5118736;28;20755;-68
2021/11/13 10:10:26;;;;;;;26.17;16.63;;;6.80;99.90;;;;;;5118466;28;20898;-68
2021/11/13 10:12:54;;;;;;;24.97;16.67;;;6.90;99.90;;;;;;5118165;28;20816;-68
2021/11/13 10:15:34;;;;;;;26.77;16.13;;;7.00;99.90;;;;;;5118457;28;20493;-68
2021/11/13 10:18:16;;;;;;;22.63;16.40;;;7.10;99.90;;;;;;5118719;28;20451;-70
2021/11/13 10:20:47;;;;;;;28.63;16.43;;;7.20;99.90;;;;;;5117511;28;20952;-68
2021/11/13 10:23:21;;;;;;;25.87;16.20;;;7.20;99.90;;;;;;5118370;28;20454;-68
2021/11/13 10:26:04;;;;;;;24.50;14.97;;;7.20;99.90;;;;;;5117885;28;20470;-68
2021/11/13 10:28:40;;;;;;;26.27;16.90;;;7.10;99.90;;;;;;5117957;28;20442;-69
2021/11/13 10:31:13;;;;;;;26.20;15.47;;;7.00;99.90;;;;;;5118239;28;20512;-69
2021/11/13 10:33:44;;;;;;;25.13;15.70;;;7.00;99.90;;;;;;5117782;28;20453;-70
2021/11/13 10:36:13;;;;;;;24.40;16.80;;;6.90;99.90;;;;;;5118312;28;20435;-70
2021/11/13 10:38:42;;;;;;;25.87;16.20;;;6.90;99.90;;;;;;5118265;28;20462;-69
2021/11/13 10:41:13;;;;;;;29.63;17.03;;;7.00;99.90;;;;;;5117785;28;20465;-68
2021/11/13 10:43:42;;;;;;;23.43;16.33;;;7.10;99.90;;;;;;5117976;28;20444;-70
2021/11/13 10:46:11;;;;;;;23.83;15.30;;;7.20;99.90;;;;;;5117408;28;20487;-68
2021/11/13 10:48:40;;;;;;;22.70;15.90;;;7.30;99.90;;;;;;5117406;28;20470;-68
2021/11/13 10:51:12;;;;;;;27.63;16.27;;;7.50;99.90;;;;;;5118196;28;20459;-69
2021/11/13 10:53:40;;;;;;;27.33;15.63;;;7.70;99.90;;;;;;5117894;28;20440;-68
2021/11/13 10:56:12;;;;;;;21.93;14.90;;;8.00;99.90;;;;;;5117355;28;20451;-69
2021/11/13 10:58:42;;;;;;;22.63;14.33;;;8.20;99.90;;;;;;5117658;28;20969;-69
2021/11/13 11:01:12;;;;;;;24.07;15.73;;;8.40;99.90;;;;;;5118020;28;20475;-69
2021/11/13 11:03:41;;;;;;;25.60;14.50;;;8.50;99.90;;;;;;5117828;28;20772;-69
2021/11/13 11:06:11;;;;;;;23.60;15.33;;;8.60;99.90;;;;;;5118325;28;20487;-69
2021/11/13 11:08:39;;;;;;;21.63;15.57;;;8.40;99.90;;;;;;5117779;28;20453;-69
2021/11/13 11:11:25;;;;;;;22.73;14.97;;;8.30;99.90;;;;;;5117293;28;20476;-69
2021/11/13 11:13:57;;;;;;;25.00;15.00;;;8.40;99.90;;;;;;5117000;28;20444;-69
2021/11/13 11:16:29;;;;;;;23.70;15.00;;;8.60;99.90;;;;;;5117064;28;20828;-68
2021/11/13 11:18:58;;;;;;;23.60;15.63;;;8.60;99.90;;;;;;5117087;28;20444;-69
2021/11/13 11:21:56;;;;;;;22.23;15.10;;;8.80;99.90;;;;;;5116537;28;20492;-68
2021/11/13 11:24:30;;;;;;;22.00;14.20;;;9.10;99.90;;;;;;5082142;28;20540;-69
2021/11/13 11:27:00;;;;;;;19.77;14.00;;;9.30;99.90;;;;;;5116943;28;20600;-68
2021/11/13 11:29:29;;;;;;;19.50;12.10;;;9.40;99.90;;;;;;5117192;28;20438;-68
2021/11/13 11:32:00;;;;;;;20.63;14.13;;;9.40;99.90;;;;;;5116976;28;20460;-68
2021/11/13 11:34:31;;;;;;;23.83;15.60;;;9.60;99.90;;;;;;5117160;28;20445;-68
2021/11/13 11:37:05;;;;;;;24.63;15.17;;;9.70;99.90;;;;;;5116768;28;20895;-68
2021/11/13 11:39:38;;;;;;;22.90;14.87;;;9.50;99.90;;;;;;5116907;28;20448;-68
2021/11/13 11:42:06;;;;;;;21.90;15.33;;;9.50;99.90;;;;;;5116832;28;20514;-69
2021/11/13 11:44:35;;;;;;;19.47;13.70;;;9.30;99.90;;;;;;5116734;28;20460;-69
2021/11/13 11:47:02;;;;;;;26.33;17.03;;;9.10;99.90;;;;;;5116220;28;20571;-68
2021/11/13 11:49:30;;;;;;;22.03;15.27;;;9.20;99.90;;;;;;5116840;28;20457;-68
2021/11/13 11:51:57;;;;;;;20.60;14.70;;;9.10;99.90;;;;;;5117013;28;20552;-68
2021/11/13 11:54:29;;;;;;;20.30;14.90;;;9.20;99.90;;;;;;5116306;28;20465;-69
2021/11/13 11:56:56;;;;;;;24.13;16.40;;;9.20;99.90;;;;;;5116748;28;20469;-69
2021/11/13 11:59:23;;;;;;;19.13;13.13;;;9.40;99.90;;;;;;5116674;28;20462;-69
2021/11/13 12:02:03;;;;;;;21.30;14.10;;;9.70;99.90;;;;;;5116689;28;20799;-68
2021/11/13 12:04:31;;;;;;;17.87;12.73;;;10.00;99.90;;;;;;5116510;28;20806;-69
2021/11/13 12:06:58;;;;;;;20.47;14.00;;;10.30;99.90;;;;;;5115787;28;20477;-69
2021/11/13 12:09:27;;;;;;;19.83;13.30;;;10.50;99.90;;;;;;5116268;28;20455;-69
2021/11/13 12:12:12;;;;;;;19.53;14.13;;;10.80;99.90;;;;;;5116427;28;20932;-69
2021/11/13 12:14:39;;;;;;;20.80;13.97;;;11.00;99.90;;;;;;5116075;28;20450;-68
2021/11/13 12:17:39;;;;;;;21.03;13.70;;;11.40;54.80;;;;;;5116431;28;20543;-69
2021/11/13 12:20:29;;;;;;;24.10;15.73;;;11.70;1.00;;;;;;5116933;28;20448;-68
2021/11/13 12:22:59;;;;;;;20.00;13.83;;;11.40;1.00;;;;;;5116049;28;20448;-69
2021/11/13 12:25:30;;;;;;;17.13;12.57;;;11.90;1.00;;;;;;5115962;28;20458;-68
2021/11/13 12:28:13;;;;;;;20.70;13.60;;;12.60;1.00;;;;;;5115279;28;20442;-68
2021/11/13 12:30:58;;;;;;;17.33;12.97;;;13.00;1.00;;;;;;5115424;28;20441;-69
2021/11/13 12:33:47;;;;;;;17.20;12.60;;;13.40;99.90;;;;;;5115812;28;20468;-69
2021/11/13 12:36:23;;;;;;;21.37;14.20;;;14.00;99.90;;;;;;5115680;28;20440;-69
2021/11/13 12:39:00;;;;;;;18.40;12.73;;;14.60;99.90;;;;;;5115870;28;20440;-69
2021/11/13 12:41:40;;;;;;;17.07;12.53;;;15.00;99.90;;;;;;5116170;28;20448;-69
2021/11/13 12:44:10;;;;;;;19.30;13.10;;;15.20;99.90;;;;;;5115508;28;20443;-68